Bigfork, Minnesota
Current Conditions -  °F | °C
As of 2:33 AM on Sunday 26 Oct 2014 (Local Time) from KFOZ Reporting Station
Clear Clear  
Wind Chill: 28°   Ceiling: Unl
Heat Index: 28°   Visibility: 10mi
Dew Point: 25°   Wind: 0mph
Humidity: 86%   Direction: NA
Pressure: 29.98"   Gusts: NA
Location:  47.74°N, 93.65°W
Report Text: KFOZ 260733Z AUTO 00000KT 10SM CLR M02/M04 A2998 RMK AO2
Loading
Personal Weather Stations






























Interactive Weather Map
Tropical Storm Tracking
New forecast layout! Learn more

10-Day Weather Forecast

Advertisements
Track Severe Weather on mobile